Time;durP1;ratioP1;P1;durP2;ratioP2;P2;SDS_P1;SDS_P2;PMS_P1;PMS_P2;Temp;Humidity;BMP_temperature;BMP_pressure;BME280_temperature;BME280_humidity;BME280_pressure;Samples;Min_cycle;Max_cycle;Signal;HPM_P1;HPM_P2
2023/06/07 00:02:00;;;;;;;11.35;4.95;;;10.60;99.90;;;;;;4927377;28;20311;-74
2023/06/07 00:04:26;;;;;;;10.57;5.20;;;10.60;99.90;;;;;;4926737;28;20126;-74
2023/06/07 00:07:00;;;;;;;9.30;4.78;;;10.60;99.90;;;;;;4908889;28;20495;-75
2023/06/07 00:09:27;;;;;;;12.95;5.60;;;10.60;99.90;;;;;;4896563;28;20062;-76
2023/06/07 00:11:54;;;;;;;13.98;5.22;;;10.70;99.90;;;;;;4911794;28;20066;-75
2023/06/07 00:14:20;;;;;;;11.70;5.22;;;10.60;99.90;;;;;;4905700;28;20052;-75
2023/06/07 00:16:47;;;;;;;9.15;4.80;;;10.60;99.90;;;;;;4903551;28;20627;-75
2023/06/07 00:19:13;;;;;;;10.70;5.25;;;10.60;99.90;;;;;;4924617;29;20124;-73
2023/06/07 00:21:38;;;;;;;12.27;5.40;;;10.60;99.90;;;;;;4899106;29;20067;-75
2023/06/07 00:24:05;;;;;;;13.88;5.70;;;10.60;99.90;;;;;;4893100;28;20039;-73
2023/06/07 00:26:31;;;;;;;9.13;4.95;;;10.60;99.90;;;;;;4905490;28;20102;-75
2023/06/07 00:28:56;;;;;;;12.40;4.93;;;10.60;99.90;;;;;;4905972;28;20788;-73
2023/06/07 00:31:22;;;;;;;8.57;4.68;;;10.60;99.90;;;;;;4909919;29;20051;-75
2023/06/07 00:33:48;;;;;;;8.43;4.90;;;10.60;99.90;;;;;;4912678;28;20122;-76
2023/06/07 00:36:13;;;;;;;12.27;5.30;;;10.60;99.90;;;;;;4908573;28;20036;-75
2023/06/07 00:38:39;;;;;;;12.30;5.03;;;10.60;99.90;;;;;;4909556;28;20415;-75
2023/06/07 00:41:05;;;;;;;10.70;4.88;;;10.60;99.90;;;;;;4906736;29;20067;-75
2023/06/07 00:43:30;;;;;;;12.43;4.57;;;10.60;99.90;;;;;;4894068;29;20048;-74
2023/06/07 00:45:56;;;;;;;12.55;6.05;;;10.60;99.90;;;;;;4888546;28;20686;-75
2023/06/07 00:48:22;;;;;;;15.93;5.30;;;10.60;99.90;;;;;;4896415;29;20470;-75
2023/06/07 00:50:47;;;;;;;9.07;4.80;;;10.50;99.90;;;;;;4905135;28;20047;-74
2023/06/07 00:53:14;;;;;;;9.02;4.78;;;10.50;99.90;;;;;;4908039;28;20361;-76
2023/06/07 00:55:39;;;;;;;11.45;4.63;;;10.50;99.90;;;;;;4900812;29;20456;-76
2023/06/07 00:58:06;;;;;;;12.82;5.07;;;10.60;99.90;;;;;;4893193;28;20138;-75
2023/06/07 01:00:32;;;;;;;13.43;5.50;;;10.50;99.90;;;;;;4911808;28;20182;-73
2023/06/07 01:02:58;;;;;;;11.30;4.97;;;10.50;99.90;;;;;;4927289;28;20302;-74
2023/06/07 01:05:24;;;;;;;10.77;5.20;;;10.50;99.90;;;;;;4889126;28;20048;-76
2023/06/07 01:07:50;;;;;;;13.93;4.90;;;10.50;99.90;;;;;;4926874;28;20048;-75
2023/06/07 01:10:16;;;;;;;11.02;5.05;;;10.50;99.90;;;;;;4905095;28;20055;-77
2023/06/07 01:12:47;;;;;;;11.63;4.80;;;10.50;99.90;;;;;;4879312;29;20051;-75
2023/06/07 01:15:13;;;;;;;13.13;4.97;;;10.50;99.90;;;;;;4909034;28;20079;-77
2023/06/07 01:17:44;;;;;;;14.07;5.22;;;10.50;99.90;;;;;;4895453;28;20043;-76
2023/06/07 01:20:21;;;;;;;12.98;4.85;;;10.50;99.90;;;;;;4913232;28;20044;-75
2023/06/07 01:22:49;;;;;;;14.95;5.25;;;10.50;99.90;;;;;;4925050;28;20614;-77
2023/06/07 01:25:15;;;;;;;10.20;3.97;;;10.50;99.90;;;;;;4921142;28;20488;-76
2023/06/07 01:27:43;;;;;;;8.90;4.70;;;10.40;99.90;;;;;;4908438;28;20055;-76
2023/06/07 01:30:11;;;;;;;10.73;5.28;;;10.40;99.90;;;;;;4899105;28;20095;-77
2023/06/07 01:32:39;;;;;;;12.80;4.90;;;10.40;99.90;;;;;;4905256;29;20105;-75
2023/06/07 01:35:07;;;;;;;15.43;4.40;;;10.40;99.90;;;;;;4908278;28;20051;-75
2023/06/07 01:37:34;;;;;;;14.90;4.35;;;10.40;99.90;;;;;;4924550;28;20040;-76
2023/06/07 01:40:03;;;;;;;9.27;4.38;;;10.40;99.90;;;;;;4898365;28;20699;-76
2023/06/07 01:42:29;;;;;;;12.88;4.80;;;10.50;99.90;;;;;;4907844;28;20488;-78
2023/06/07 01:44:57;;;;;;;9.13;4.03;;;10.50;99.90;;;;;;4918910;28;20048;-77
2023/06/07 01:47:22;;;;;;;8.88;3.92;;;10.40;99.90;;;;;;4908862;28;20091;-76
2023/06/07 01:49:48;;;;;;;8.65;4.10;;;10.40;99.90;;;;;;4905178;28;20416;-77
2023/06/07 01:52:14;;;;;;;12.02;4.45;;;10.40;99.90;;;;;;4911080;29;20362;-76
2023/06/07 01:54:40;;;;;;;10.10;4.28;;;10.50;99.90;;;;;;4909203;28;20065;-78
2023/06/07 01:57:24;;;;;;;10.02;4.40;;;10.50;99.90;;;;;;4902164;28;20052;-79
2023/06/07 02:00:03;;;;;;;10.73;3.83;;;10.50;99.90;;;;;;4925983;29;20058;-77
2023/06/07 02:02:37;;;;;;;15.48;5.03;;;10.50;99.90;;;;;;4911835;29;20044;-76
2023/06/07 02:05:12;;;;;;;9.27;3.80;;;10.70;99.90;;;;;;4924445;28;20051;-77
2023/06/07 02:07:45;;;;;;;11.38;4.25;;;10.60;99.90;;;;;;4925761;28;20055;-77
2023/06/07 02:10:12;;;;;;;14.70;4.80;;;10.60;99.90;;;;;;4910734;28;20043;-76
2023/06/07 02:12:40;;;;;;;15.77;4.88;;;10.70;99.90;;;;;;4908400;28;20658;-75
2023/06/07 02:15:07;;;;;;;13.52;4.28;;;10.70;99.90;;;;;;4903311;29;20458;-73
2023/06/07 02:17:33;;;;;;;11.60;4.45;;;10.70;99.90;;;;;;4916716;28;20089;-78
2023/06/07 02:19:59;;;;;;;9.65;4.78;;;10.60;99.90;;;;;;4902715;28;20052;-77
2023/06/07 02:22:25;;;;;;;9.13;4.25;;;10.70;99.90;;;;;;4908232;28;20044;-77
2023/06/07 02:24:51;;;;;;;11.57;4.45;;;10.70;99.90;;;;;;4903410;28;20051;-79
2023/06/07 02:27:17;;;;;;;11.93;4.85;;;10.80;99.90;;;;;;4887931;28;20039;-77
2023/06/07 02:29:42;;;;;;;9.95;4.25;;;10.70;99.90;;;;;;4905384;28;20046;-77
2023/06/07 02:32:08;;;;;;;11.25;4.30;;;10.70;99.90;;;;;;4920850;28;20043;-77
2023/06/07 02:34:34;;;;;;;12.88;5.10;;;10.70;99.90;;;;;;4922093;28;20710;-76
2023/06/07 02:37:00;;;;;;;12.73;4.40;;;10.80;99.90;;;;;;4905464;28;20040;-78
2023/06/07 02:39:26;;;;;;;12.25;4.13;;;10.80;99.90;;;;;;4902121;28;20074;-77
2023/06/07 02:41:52;;;;;;;20.63;4.55;;;10.80;99.90;;;;;;4918958;29;20499;-77
2023/06/07 02:44:17;;;;;;;11.35;4.05;;;10.80;99.90;;;;;;4902319;28;20047;-76
2023/06/07 02:46:43;;;;;;;8.38;3.80;;;10.80;99.90;;;;;;4912510;28;20056;-78
2023/06/07 02:49:09;;;;;;;13.75;4.80;;;10.80;99.90;;;;;;4905990;28;20468;-76
2023/06/07 02:51:37;;;;;;;15.40;5.25;;;10.90;99.90;;;;;;4907068;28;20089;-78
2023/06/07 02:54:03;;;;;;;13.40;4.53;;;11.00;99.90;;;;;;4890181;29;20089;-79
2023/06/07 02:56:30;;;;;;;16.35;4.57;;;11.00;99.90;;;;;;4915376;28;20056;-79
2023/06/07 02:58:55;;;;;;;7.40;3.78;;;11.10;99.90;;;;;;4873130;28;20147;-79
2023/06/07 03:01:21;;;;;;;8.70;4.85;;;11.10;99.90;;;;;;4886420;28;20130;-77
2023/06/07 03:03:47;;;;;;;12.00;4.40;;;11.10;99.90;;;;;;4907154;29;20553;-77
2023/06/07 03:06:15;;;;;;;11.10;4.50;;;11.10;99.90;;;;;;4908522;28;20047;-78
2023/06/07 03:08:41;;;;;;;8.93;4.53;;;11.20;99.90;;;;;;4918470;28;20078;-77
2023/06/07 03:11:06;;;;;;;9.70;4.20;;;11.20;99.90;;;;;;4898060;28;20032;-79
2023/06/07 03:13:32;;;;;;;11.57;4.82;;;11.20;99.90;;;;;;4900131;28;20039;-78
2023/06/07 03:15:58;;;;;;;10.20;4.43;;;11.20;99.90;;;;;;4899051;29;20094;-79
2023/06/07 03:18:23;;;;;;;14.98;4.80;;;11.20;99.90;;;;;;4912746;28;20121;-77
2023/06/07 03:20:49;;;;;;;12.48;5.55;;;11.40;99.90;;;;;;4911840;28;20067;-78
2023/06/07 03:23:15;;;;;;;10.40;3.97;;;11.40;99.90;;;;;;4888637;29;20044;-77
2023/06/07 03:25:41;;;;;;;17.20;4.95;;;11.40;99.90;;;;;;4892242;29;20052;-78
2023/06/07 03:28:07;;;;;;;11.82;4.00;;;11.50;99.90;;;;;;4927886;28;20094;-76
2023/06/07 03:30:32;;;;;;;9.25;4.07;;;11.60;99.90;;;;;;4911080;28;20063;-77
2023/06/07 03:32:58;;;;;;;9.18;3.67;;;11.70;99.90;;;;;;4902650;29;20112;-78
2023/06/07 03:35:24;;;;;;;13.35;4.50;;;11.70;99.90;;;;;;4908490;28;20653;-80
2023/06/07 03:37:50;;;;;;;13.18;4.85;;;11.70;99.90;;;;;;4906276;28;20040;-78
2023/06/07 03:40:16;;;;;;;12.48;5.38;;;11.80;99.90;;;;;;4889072;28;20057;-78
2023/06/07 03:42:41;;;;;;;12.68;4.63;;;11.80;99.90;;;;;;4913762;29;20056;-79
2023/06/07 03:45:07;;;;;;;10.55;4.47;;;11.80;99.90;;;;;;4908812;29;20507;-76
2023/06/07 03:47:33;;;;;;;13.15;4.32;;;11.90;99.90;;;;;;4903221;29;20090;-77
2023/06/07 03:49:59;;;;;;;13.77;4.38;;;11.90;99.90;;;;;;4897832;29;20044;-77
2023/06/07 03:52:25;;;;;;;9.57;4.97;;;12.00;99.90;;;;;;4907401;28;20074;-79
2023/06/07 03:54:51;;;;;;;10.57;4.35;;;12.10;99.90;;;;;;4886229;28;20067;-76
2023/06/07 03:57:17;;;;;;;12.32;4.85;;;12.00;99.90;;;;;;4923437;28;20500;-79
2023/06/07 03:59:42;;;;;;;16.58;4.70;;;12.20;99.90;;;;;;4893309;29;20078;-77
2023/06/07 04:02:08;;;;;;;13.45;4.15;;;12.20;99.90;;;;;;4898996;29;20504;-78
2023/06/07 04:04:34;;;;;;;10.63;5.13;;;12.30;99.90;;;;;;4909300;29;20040;-76
2023/06/07 04:07:03;;;;;;;11.85;5.20;;;12.40;99.90;;;;;;4928715;29;20044;-77
2023/06/07 04:09:29;;;;;;;9.27;4.43;;;12.40;99.90;;;;;;4910475;28;20430;-77
2023/06/07 04:11:55;;;;;;;12.40;4.63;;;12.40;99.90;;;;;;4911625;28;20110;-77
2023/06/07 04:14:21;;;;;;;16.40;4.53;;;12.50;99.90;;;;;;4897730;28;20049;-77
2023/06/07 04:16:47;;;;;;;10.85;3.65;;;12.50;99.90;;;;;;4897161;29;20118;-77
2023/06/07 04:19:13;;;;;;;7.68;3.53;;;12.60;99.90;;;;;;4927109;28;20042;-77
2023/06/07 04:21:39;;;;;;;11.13;4.47;;;12.70;99.90;;;;;;4902921;28;20036;-78
2023/06/07 04:24:05;;;;;;;9.70;4.10;;;12.80;99.90;;;;;;4907108;28;20043;-77
2023/06/07 04:26:31;;;;;;;9.82;4.45;;;12.80;99.90;;;;;;4924741;28;20039;-77
2023/06/07 04:28:57;;;;;;;8.40;3.97;;;12.80;99.90;;;;;;4906748;29;20043;-78
2023/06/07 04:31:29;;;;;;;11.50;4.45;;;12.80;99.90;;;;;;4890668;28;20388;-78
2023/06/07 04:33:57;;;;;;;11.80;4.10;;;12.80;99.90;;;;;;4920236;29;20158;-78
2023/06/07 04:36:25;;;;;;;9.77;3.53;;;13.00;99.90;;;;;;4906743;28;20043;-78
2023/06/07 04:38:55;;;;;;;7.25;3.97;;;13.00;99.90;;;;;;4914074;29;20067;-78
2023/06/07 04:41:30;;;;;;;11.05;3.70;;;13.00;99.90;;;;;;4913833;28;20082;-77
2023/06/07 04:43:56;;;;;;;9.05;4.07;;;13.10;99.90;;;;;;4893894;29;20036;-78
2023/06/07 04:46:22;;;;;;;12.98;5.50;;;13.20;99.90;;;;;;4909924;28;20052;-79
2023/06/07 04:48:48;;;;;;;7.70;4.15;;;13.10;99.90;;;;;;4974659;28;20043;-79
2023/06/07 04:51:13;;;;;;;10.48;3.85;;;13.20;99.90;;;;;;4910674;28;20047;-77
2023/06/07 04:53:41;;;;;;;8.30;3.40;;;13.30;99.90;;;;;;4922585;29;20040;-77
2023/06/07 04:56:07;;;;;;;9.80;3.90;;;13.20;99.90;;;;;;4925848;28;20059;-76
2023/06/07 04:58:33;;;;;;;12.98;3.75;;;13.20;99.90;;;;;;4920917;29;20597;-77
2023/06/07 05:01:00;;;;;;;8.70;3.13;;;13.40;99.90;;;;;;4893758;29;20040;-78
2023/06/07 05:03:25;;;;;;;10.15;3.83;;;13.20;99.90;;;;;;4905638;29;20485;-79
2023/06/07 05:05:52;;;;;;;13.50;3.75;;;13.40;99.90;;;;;;4893107;28;20131;-77
2023/06/07 05:08:18;;;;;;;11.40;3.95;;;13.40;99.90;;;;;;4923151;28;20079;-80
2023/06/07 05:10:44;;;;;;;8.75;3.10;;;13.30;99.90;;;;;;4890047;28;20074;-80
2023/06/07 05:13:10;;;;;;;10.70;3.97;;;13.40;99.90;;;;;;4923543;28;20044;-78
2023/06/07 05:15:36;;;;;;;8.27;3.05;;;13.40;99.90;;;;;;4903556;28;20031;-78
2023/06/07 05:18:02;;;;;;;8.60;2.92;;;13.40;99.90;;;;;;4925781;29;20097;-78
2023/06/07 05:20:29;;;;;;;8.70;3.28;;;13.50;99.90;;;;;;4895813;29;20052;-77
2023/06/07 05:22:56;;;;;;;9.70;3.67;;;13.60;99.90;;;;;;4909119;29;20135;-80
2023/06/07 05:25:21;;;;;;;9.05;3.38;;;13.70;99.90;;;;;;4903724;29;20055;-78
2023/06/07 05:27:49;;;;;;;7.97;3.70;;;13.70;99.90;;;;;;4922955;28;20078;-77
2023/06/07 05:30:16;;;;;;;13.77;3.38;;;13.70;99.90;;;;;;4885428;29;20124;-80
2023/06/07 05:32:42;;;;;;;7.78;3.70;;;13.80;99.90;;;;;;4900843;28;20044;-77
2023/06/07 05:35:08;;;;;;;8.55;3.30;;;13.60;99.90;;;;;;4947737;28;20039;-78
2023/06/07 05:37:34;;;;;;;11.45;3.30;;;13.60;99.90;;;;;;4907726;28;20054;-80
2023/06/07 05:40:00;;;;;;;15.55;3.85;;;13.70;99.90;;;;;;4916407;29;20048;-79
2023/06/07 05:42:26;;;;;;;12.55;3.70;;;13.70;99.90;;;;;;4914477;28;20496;-79
2023/06/07 05:44:51;;;;;;;10.70;3.90;;;13.80;99.90;;;;;;4919819;29;20055;-78
2023/06/07 05:47:20;;;;;;;7.95;3.10;;;13.80;99.90;;;;;;4902578;28;20048;-83
2023/06/07 05:49:47;;;;;;;7.82;3.33;;;13.70;99.90;;;;;;4899128;28;20039;-79
2023/06/07 05:52:13;;;;;;;10.70;3.38;;;13.90;99.90;;;;;;4909709;28;20043;-79
2023/06/07 05:54:47;;;;;;;8.55;3.55;;;14.10;99.90;;;;;;4918679;28;20123;-78
2023/06/07 05:57:13;;;;;;;9.20;3.83;;;14.10;99.90;;;;;;4920784;28;20181;-80
2023/06/07 05:59:39;;;;;;;9.73;3.88;;;14.20;99.90;;;;;;4895370;28;20145;-80
2023/06/07 06:02:06;;;;;;;7.80;3.45;;;14.20;99.90;;;;;;4920513;28;20087;-77
2023/06/07 06:04:31;;;;;;;10.13;3.53;;;14.20;99.90;;;;;;4906340;29;20040;-74
2023/06/07 06:06:57;;;;;;;6.97;3.30;;;14.20;99.90;;;;;;4906213;28;20043;-76
2023/06/07 06:09:23;;;;;;;10.45;3.20;;;14.30;99.90;;;;;;4918260;28;20714;-79
2023/06/07 06:11:50;;;;;;;12.77;3.95;;;14.30;99.90;;;;;;4918380;29;20085;-81
2023/06/07 06:14:15;;;;;;;8.40;3.30;;;14.50;99.90;;;;;;4890611;29;20075;-77
2023/06/07 06:16:41;;;;;;;10.85;3.63;;;14.60;99.90;;;;;;4903184;28;20724;-77
2023/06/07 06:19:07;;;;;;;8.48;3.47;;;14.50;99.90;;;;;;4923159;28;20051;-76
2023/06/07 06:21:33;;;;;;;9.82;4.10;;;14.60;99.90;;;;;;4922966;28;20583;-77
2023/06/07 06:24:00;;;;;;;11.60;4.03;;;14.60;99.90;;;;;;4907440;29;20048;-80
2023/06/07 06:26:27;;;;;;;7.50;3.45;;;14.50;99.90;;;;;;4908757;28;20054;-76
2023/06/07 06:28:53;;;;;;;8.18;3.25;;;14.60;99.90;;;;;;4906437;28;20047;-75
2023/06/07 06:31:18;;;;;;;7.88;2.97;;;14.60;99.90;;;;;;4891714;29;20035;-75
2023/06/07 06:33:44;;;;;;;10.60;3.15;;;14.70;99.90;;;;;;4876870;29;20092;-75
2023/06/07 06:36:11;;;;;;;7.22;3.28;;;14.80;99.90;;;;;;4920252;28;20041;-77
2023/06/07 06:38:36;;;;;;;8.35;3.45;;;14.70;99.90;;;;;;4888907;28;20043;-76
2023/06/07 06:41:02;;;;;;;5.72;2.67;;;14.60;99.90;;;;;;4919497;28;20044;-75
2023/06/07 06:43:28;;;;;;;12.45;3.10;;;14.80;99.90;;;;;;4928182;29;20054;-78
2023/06/07 06:45:54;;;;;;;6.53;3.20;;;14.80;99.90;;;;;;4917320;28;20427;-78
2023/06/07 06:48:19;;;;;;;5.88;2.85;;;14.90;99.90;;;;;;4910275;29;20036;-78
2023/06/07 06:50:47;;;;;;;4.80;3.17;;;15.00;99.90;;;;;;4913223;28;20573;-79
2023/06/07 06:53:13;;;;;;;7.80;3.13;;;14.80;99.90;;;;;;4922965;28;20040;-78
2023/06/07 06:55:39;;;;;;;7.75;3.60;;;15.20;99.90;;;;;;4932164;28;20056;-80
2023/06/07 06:58:05;;;;;;;8.75;3.40;;;15.20;99.90;;;;;;4908683;28;20052;-78
2023/06/07 07:00:35;;;;;;;9.25;3.20;;;15.40;99.90;;;;;;4928945;29;20047;-78
2023/06/07 07:03:01;;;;;;;9.30;3.40;;;15.30;99.90;;;;;;4927206;28;20051;-78
2023/06/07 07:05:27;;;;;;;7.80;3.03;;;15.20;99.90;;;;;;4926629;28;20098;-77
2023/06/07 07:07:52;;;;;;;8.40;3.30;;;15.40;99.90;;;;;;4889247;28;20484;-78
2023/06/07 07:10:18;;;;;;;8.95;3.60;;;15.50;99.90;;;;;;4890677;28;20036;-77
2023/06/07 07:12:44;;;;;;;11.68;3.63;;;15.60;99.90;;;;;;4893836;28;20392;-79
2023/06/07 07:15:10;;;;;;;7.32;3.58;;;16.10;99.90;;;;;;4923975;28;20197;-77
2023/06/07 07:17:49;;;;;;;6.75;2.95;;;16.70;99.90;;;;;;4875314;28;20474;-81
2023/06/07 07:20:16;;;;;;;10.15;3.20;;;16.70;99.90;;;;;;4922324;28;20082;-79
2023/06/07 07:22:44;;;;;;;10.00;2.97;;;17.50;99.90;;;;;;4904613;28;20075;-81
2023/06/07 07:25:11;;;;;;;6.50;3.30;;;17.50;99.90;;;;;;4920970;28;20406;-76
2023/06/07 07:27:37;;;;;;;6.70;2.80;;;17.60;99.90;;;;;;4910861;28;20054;-79
2023/06/07 07:30:04;;;;;;;5.63;2.90;;;17.50;99.90;;;;;;4925676;28;20461;-81
2023/06/07 07:32:30;;;;;;;4.90;2.72;;;16.90;99.90;;;;;;4922526;29;20047;-80
2023/06/07 07:34:56;;;;;;;6.63;3.05;;;16.80;99.90;;;;;;4909582;28;20420;-81
2023/06/07 07:37:22;;;;;;;6.57;3.33;;;16.60;99.90;;;;;;4896593;28;20059;-80
2023/06/07 07:39:47;;;;;;;8.35;3.25;;;16.50;99.90;;;;;;4907868;28;20048;-80
2023/06/07 07:42:13;;;;;;;10.73;2.78;;;16.70;99.90;;;;;;4913286;28;20083;-80
2023/06/07 07:44:39;;;;;;;6.60;2.85;;;16.70;99.90;;;;;;4893290;29;20086;-79
2023/06/07 07:47:06;;;;;;;8.75;3.17;;;16.80;99.90;;;;;;4877926;29;21665;-78
2023/06/07 07:49:32;;;;;;;8.18;3.20;;;17.10;99.90;;;;;;4909014;29;20032;-82
2023/06/07 07:51:58;;;;;;;6.90;3.42;;;17.10;99.90;;;;;;4907593;28;20101;-79
2023/06/07 07:54:24;;;;;;;8.50;3.33;;;17.20;99.90;;;;;;4911081;28;20058;-77
2023/06/07 07:56:49;;;;;;;8.25;3.20;;;17.40;99.90;;;;;;4911152;28;20044;-81
2023/06/07 07:59:15;;;;;;;5.63;3.05;;;17.40;99.90;;;;;;4908000;28;20044;-79
2023/06/07 08:01:41;;;;;;;6.82;3.20;;;17.30;99.90;;;;;;4895214;29;20588;-78
2023/06/07 08:04:06;;;;;;;8.25;3.10;;;17.40;99.90;;;;;;4925476;28;20063;-77
2023/06/07 08:06:32;;;;;;;9.85;3.83;;;17.40;99.90;;;;;;4901542;28;20044;-78
2023/06/07 08:08:58;;;;;;;8.55;3.47;;;17.40;99.90;;;;;;4927035;28;20039;-79
2023/06/07 08:11:25;;;;;;;7.13;3.53;;;17.40;99.90;;;;;;4920463;28;20468;-82
2023/06/07 08:13:51;;;;;;;9.40;3.08;;;17.60;99.90;;;;;;4905186;28;20415;-79
2023/06/07 08:16:16;;;;;;;6.05;3.30;;;17.40;99.90;;;;;;4908383;28;20043;-79
2023/06/07 08:18:49;;;;;;;9.65;3.75;;;17.70;99.90;;;;;;4913364;28;20052;-79
2023/06/07 08:21:15;;;;;;;8.27;3.60;;;17.80;99.90;;;;;;4905822;28;20106;-79
2023/06/07 08:23:44;;;;;;;5.95;3.45;;;17.50;99.90;;;;;;4894315;29;20415;-79
2023/06/07 08:26:10;;;;;;;10.10;3.28;;;18.00;99.90;;;;;;4901143;28;20067;-81
2023/06/07 08:28:36;;;;;;;6.13;3.30;;;17.70;99.90;;;;;;4908430;28;20071;-77
2023/06/07 08:31:03;;;;;;;6.88;3.40;;;17.70;99.90;;;;;;4927505;29;20515;-79
2023/06/07 08:33:30;;;;;;;11.48;3.78;;;17.70;99.90;;;;;;4903983;28;20040;-78
2023/06/07 08:35:55;;;;;;;7.55;3.50;;;17.60;99.90;;;;;;4927359;28;20036;-75
2023/06/07 08:38:21;;;;;;;4.93;3.40;;;17.80;99.90;;;;;;4922499;28;20069;-76
2023/06/07 08:40:46;;;;;;;7.22;3.58;;;18.10;99.90;;;;;;4925088;28;20047;-77
2023/06/07 08:43:12;;;;;;;5.10;3.10;;;18.20;99.90;;;;;;4924812;28;20039;-76
2023/06/07 08:45:38;;;;;;;7.85;3.53;;;18.40;99.90;;;;;;4909269;29;20054;-77
2023/06/07 08:48:12;;;;;;;7.22;3.90;;;18.70;99.90;;;;;;4909483;28;20070;-79
2023/06/07 08:50:38;;;;;;;10.07;3.90;;;18.50;99.90;;;;;;4903325;28;20054;-78
2023/06/07 08:53:12;;;;;;;9.48;3.65;;;18.80;99.90;;;;;;4923850;28;20043;-78
2023/06/07 08:55:38;;;;;;;9.27;3.67;;;18.80;99.90;;;;;;4923640;28;20055;-80
2023/06/07 08:58:07;;;;;;;8.18;3.67;;;18.90;99.90;;;;;;4939250;28;20038;-78
2023/06/07 09:00:33;;;;;;;6.30;3.53;;;18.70;99.90;;;;;;4906141;28;20077;-78
2023/06/07 09:02:59;;;;;;;5.47;3.38;;;18.90;99.90;;;;;;4916195;28;20491;-76
2023/06/07 09:05:24;;;;;;;6.40;2.80;;;18.70;99.90;;;;;;4904043;28;20044;-75
2023/06/07 09:07:52;;;;;;;5.00;3.05;;;18.60;99.90;;;;;;4921503;29;20047;-79
2023/06/07 09:10:18;;;;;;;10.27;3.85;;;18.90;99.90;;;;;;4902560;29;20072;-77
2023/06/07 09:12:45;;;;;;;6.95;3.00;;;19.50;99.90;;;;;;4922633;28;20071;-78
2023/06/07 09:15:19;;;;;;;5.00;2.95;;;19.70;99.90;;;;;;4906846;28;20036;-76
2023/06/07 09:17:52;;;;;;;8.23;3.30;;;20.00;99.90;;;;;;4903135;28;20048;-77
2023/06/07 09:20:23;;;;;;;8.30;3.35;;;20.00;99.90;;;;;;4923168;28;20075;-72
2023/06/07 09:23:08;;;;;;;10.23;3.00;;;20.20;99.90;;;;;;4923099;29;20399;-75
2023/06/07 09:25:35;;;;;;;11.52;3.33;;;20.60;99.90;;;;;;4925245;28;20105;-77
2023/06/07 09:28:10;;;;;;;6.22;2.97;;;20.50;99.90;;;;;;4919600;28;20079;-77
2023/06/07 09:30:50;;;;;;;8.18;3.88;;;20.80;99.90;;;;;;4933680;28;20093;-76
2023/06/07 09:33:28;;;;;;;7.50;3.42;;;20.90;99.90;;;;;;4903459;29;20129;-75
2023/06/07 09:36:04;;;;;;;6.05;3.13;;;21.20;99.90;;;;;;4905218;28;20036;-79
2023/06/07 09:38:30;;;;;;;6.88;3.30;;;21.10;99.90;;;;;;4920765;28;20054;-75
2023/06/07 09:40:59;;;;;;;5.22;2.85;;;21.50;99.90;;;;;;4921738;28;20039;-76
2023/06/07 09:43:25;;;;;;;6.22;2.90;;;21.30;99.90;;;;;;4888428;29;20071;-76
2023/06/07 09:45:55;;;;;;;7.28;3.53;;;21.20;99.90;;;;;;4905992;29;20059;-76
2023/06/07 09:48:21;;;;;;;8.23;3.40;;;21.70;99.90;;;;;;4921647;28;20040;-79
2023/06/07 09:50:58;;;;;;;5.78;3.00;;;22.30;99.90;;;;;;4927187;29;20501;-77
2023/06/07 09:53:24;;;;;;;5.07;2.90;;;22.30;99.90;;;;;;4921159;28;20511;-78
2023/06/07 09:55:50;;;;;;;7.32;3.28;;;22.00;99.90;;;;;;4908799;29;20218;-76
2023/06/07 09:58:20;;;;;;;8.80;3.70;;;22.00;99.90;;;;;;4922352;28;20126;-77
2023/06/07 10:00:46;;;;;;;10.13;3.38;;;21.90;99.90;;;;;;4903485;28;20052;-76
2023/06/07 10:03:12;;;;;;;7.40;3.10;;;22.20;99.90;;;;;;4908302;28;20082;-76
2023/06/07 10:05:39;;;;;;;7.82;3.55;;;22.30;99.90;;;;;;4889656;29;20134;-77
2023/06/07 10:08:06;;;;;;;8.27;3.25;;;22.60;99.90;;;;;;4905116;28;20704;-76
2023/06/07 10:10:35;;;;;;;7.82;3.45;;;22.30;99.90;;;;;;4918365;29;20127;-75
2023/06/07 10:13:05;;;;;;;6.35;3.35;;;22.80;99.90;;;;;;4909546;28;20682;-76
2023/06/07 10:15:34;;;;;;;7.22;3.47;;;21.90;99.90;;;;;;4921933;29;20573;-75
2023/06/07 10:18:14;;;;;;;8.40;3.40;;;22.10;99.90;;;;;;4906733;28;20078;-74
2023/06/07 10:20:46;;;;;;;5.38;2.97;;;22.50;99.90;;;;;;4914664;28;20051;-75
2023/06/07 10:23:18;;;;;;;9.27;3.55;;;22.70;99.90;;;;;;4894907;28;20048;-77
2023/06/07 10:25:52;;;;;;;8.43;3.88;;;21.60;99.90;;;;;;4925967;28;20436;-72
2023/06/07 10:28:39;;;;;;;7.60;3.63;;;22.00;99.90;;;;;;4902609;28;20054;-78
2023/06/07 10:31:09;;;;;;;8.73;3.88;;;21.70;99.90;;;;;;4918754;28;20036;-77
2023/06/07 10:33:36;;;;;;;10.73;3.97;;;21.90;99.90;;;;;;4907045;28;20040;-79
2023/06/07 10:36:02;;;;;;;8.13;3.60;;;22.30;99.90;;;;;;4919745;28;20040;-75
2023/06/07 10:38:32;;;;;;;7.40;3.42;;;21.90;99.90;;;;;;4923119;28;20036;-75
2023/06/07 10:41:01;;;;;;;8.35;3.90;;;22.30;99.90;;;;;;4904694;28;20082;-77
2023/06/07 10:43:29;;;;;;;5.25;3.60;;;21.80;99.90;;;;;;4926006;29;20056;-76
2023/06/07 10:46:20;;;;;;;6.93;4.50;;;21.60;99.90;;;;;;4932224;28;20055;-77
2023/06/07 10:48:46;;;;;;;8.00;3.70;;;21.80;99.90;;;;;;4921149;28;20050;-77
2023/06/07 10:51:13;;;;;;;7.40;3.80;;;22.30;99.90;;;;;;4926579;28;20042;-73
2023/06/07 10:54:08;;;;;;;7.43;3.80;;;22.30;99.90;;;;;;4922506;28;20036;-74
2023/06/07 10:56:35;;;;;;;5.82;3.50;;;22.30;99.90;;;;;;4893605;28;20048;-75
2023/06/07 10:59:13;;;;;;;4.35;3.10;;;23.00;99.90;;;;;;4924697;28;20047;-79
2023/06/07 11:01:39;;;;;;;7.57;3.17;;;23.10;97.40;;;;;;4922971;28;20074;-76
2023/06/07 11:04:05;;;;;;;5.28;3.13;;;23.30;99.90;;;;;;4921329;28;20039;-76
2023/06/07 11:06:34;;;;;;;6.55;2.97;;;23.00;99.90;;;;;;4921672;28;20488;-79
2023/06/07 11:09:19;;;;;;;5.60;3.00;;;22.50;99.90;;;;;;4903372;28;20094;-76
2023/06/07 11:11:45;;;;;;;6.18;3.22;;;23.30;80.70;;;;;;4905032;28;20043;-79
2023/06/07 11:14:12;;;;;;;5.40;2.70;;;23.40;93.50;;;;;;4889573;28;20400;-79
2023/06/07 11:16:39;;;;;;;5.43;2.92;;;23.20;92.20;;;;;;4921516;28;20050;-83
2023/06/07 11:19:16;;;;;;;9.43;3.50;;;22.90;95.40;;;;;;4910683;28;20097;-85
2023/06/07 11:21:57;;;;;;;7.22;3.20;;;22.80;66.50;;;;;;4916092;28;20055;-78
2023/06/07 11:24:24;;;;;;;6.80;3.42;;;22.70;45.50;;;;;;4903221;29;20050;-79
2023/06/07 11:26:50;;;;;;;7.85;2.95;;;23.40;75.70;;;;;;4923879;28;20400;-80
2023/06/07 11:29:20;;;;;;;7.82;3.33;;;22.70;66.50;;;;;;4916189;29;20055;-80
2023/06/07 11:31:47;;;;;;;5.90;3.20;;;22.70;53.10;;;;;;4907290;29;20055;-80
2023/06/07 11:34:14;;;;;;;8.82;3.88;;;23.30;59.80;;;;;;4903719;28;20122;-80
2023/06/07 11:36:41;;;;;;;8.93;3.58;;;23.00;42.40;;;;;;4905018;28;20040;-78
2023/06/07 11:39:08;;;;;;;6.35;4.00;;;23.20;36.10;;;;;;4920288;28;20051;-79
2023/06/07 11:41:40;;;;;;;8.13;3.63;;;23.40;38.00;;;;;;4920360;28;20054;-76
2023/06/07 11:44:06;;;;;;;5.15;2.90;;;23.50;1.00;;;;;;4895807;29;20051;-79
2023/06/07 11:46:33;;;;;;;8.13;3.72;;;23.20;21.00;;;;;;4911379;28;20226;-78
2023/06/07 11:49:11;;;;;;;7.70;3.03;;;23.10;13.50;;;;;;4918812;29;20096;-78
2023/06/07 11:51:38;;;;;;;5.57;3.65;;;23.10;1.00;;;;;;4912336;28;20503;-78
2023/06/07 11:54:05;;;;;;;7.13;3.67;;;22.90;10.00;;;;;;4938619;28;20044;-79
2023/06/07 11:56:36;;;;;;;5.75;3.20;;;23.00;21.90;;;;;;4910638;28;20563;-76
2023/06/07 11:59:03;;;;;;;7.47;3.50;;;23.10;18.00;;;;;;4890004;28;20058;-76
2023/06/07 12:01:30;;;;;;;5.80;3.33;;;23.30;9.10;;;;;;4917249;28;20071;-80
2023/06/07 12:03:56;;;;;;;5.40;3.38;;;23.70;6.90;;;;;;4927699;28;20043;-81
2023/06/07 12:06:26;;;;;;;8.05;3.50;;;23.80;3.60;;;;;;4912050;29;20066;-77
2023/06/07 12:08:51;;;;;;;5.05;2.92;;;24.00;1.00;;;;;;4919869;28;20130;-80
2023/06/07 12:11:23;;;;;;;6.75;3.15;;;23.70;1.00;;;;;;4920784;28;20123;-80
2023/06/07 12:13:53;;;;;;;6.90;3.25;;;24.00;1.00;;;;;;4926893;28;20044;-81
2023/06/07 12:16:21;;;;;;;7.63;3.53;;;23.50;1.00;;;;;;4929177;28;20071;-77
2023/06/07 12:18:47;;;;;;;8.10;3.58;;;23.40;1.00;;;;;;4896306;29;20496;-80
2023/06/07 12:21:15;;;;;;;5.40;3.28;;;23.80;1.00;;;;;;4923161;29;20032;-79
2023/06/07 12:24:00;;;;;;;10.15;3.47;;;23.60;1.00;;;;;;4927516;28;20044;-80
2023/06/07 12:26:30;;;;;;;6.85;3.35;;;23.30;1.00;;;;;;4889600;28;20040;-76
2023/06/07 12:28:56;;;;;;;6.65;3.38;;;23.70;1.00;;;;;;4926234;28;20044;-80
2023/06/07 12:31:26;;;;;;;5.97;3.03;;;23.20;1.00;;;;;;4932386;28;20043;-76
2023/06/07 12:33:56;;;;;;;5.68;3.40;;;23.70;1.00;;;;;;4931230;29;20514;-77
2023/06/07 12:36:25;;;;;;;5.13;3.63;;;23.50;1.00;;;;;;4924691;29;20101;-77
2023/06/07 12:38:52;;;;;;;6.38;2.72;;;23.20;1.00;;;;;;4915380;28;20059;-75
2023/06/07 12:41:18;;;;;;;5.95;3.13;;;23.40;1.00;;;;;;4910469;28;20058;-79
2023/06/07 12:43:47;;;;;;;6.38;3.17;;;23.50;1.00;;;;;;4904266;28;20044;-76
2023/06/07 12:46:13;;;;;;;5.88;3.10;;;23.30;1.00;;;;;;4939238;28;20046;-80